Time;durP1;ratioP1;P1;durP2;ratioP2;P2;SDS_P1;SDS_P2;PMS_P1;PMS_P2;Temp;Humidity;BMP_temperature;BMP_pressure;BME280_temperature;BME280_humidity;BME280_pressure;Samples;Min_cycle;Max_cycle;Signal;HPM_P1;HPM_P2
2022/07/03 00:02:02;;;;;;;6.05;2.90;;;20.70;89.00;;;18.15;79.59;100663.00;5069686;28;20056;-90
2022/07/03 00:04:29;;;;;;;7.20;2.80;;;20.70;89.00;;;18.09;79.73;100670.28;5071251;28;20042;-90
2022/07/03 00:06:57;;;;;;;8.32;2.58;;;20.70;89.00;;;18.03;80.22;100664.84;5086727;28;20056;-90
2022/07/03 00:09:26;;;;;;;5.15;2.40;;;20.60;89.00;;;17.93;80.25;100666.25;5066043;28;20044;-90
2022/07/03 00:11:53;;;;;;;5.00;2.17;;;20.50;89.00;;;17.86;80.66;100670.97;5069707;28;20139;-87
2022/07/03 00:14:20;;;;;;;6.50;2.38;;;20.50;89.50;;;17.74;82.68;100662.63;5054326;28;20123;-89
2022/07/03 00:16:48;;;;;;;5.97;2.47;;;20.50;90.20;;;17.67;83.40;100667.34;5051032;28;20118;-89
2022/07/03 00:19:15;;;;;;;6.03;2.72;;;20.40;90.30;;;17.67;83.24;100671.97;5050541;28;20072;-88
2022/07/03 00:21:48;;;;;;;6.70;2.40;;;20.40;90.50;;;17.65;82.81;100671.38;5052508;28;20055;-90
2022/07/03 00:24:24;;;;;;;8.30;2.60;;;20.30;90.20;;;17.63;82.73;100662.50;5049646;28;20051;-88
2022/07/03 00:26:54;;;;;;;5.95;2.40;;;20.30;90.10;;;17.63;82.76;100671.63;5066417;28;20086;-90
2022/07/03 00:29:24;;;;;;;7.15;2.53;;;20.30;90.50;;;17.58;83.93;100675.03;5068979;28;20041;-91
2022/07/03 00:31:51;;;;;;;6.32;2.25;;;20.30;91.00;;;17.57;83.33;100678.88;5071024;28;20064;-89
2022/07/03 00:34:20;;;;;;;7.80;2.40;;;20.20;90.80;;;17.56;83.47;100677.19;5069671;28;20044;-90
2022/07/03 00:36:49;;;;;;;7.22;2.47;;;20.20;90.70;;;17.51;84.34;100668.75;5069628;28;20174;-90
2022/07/03 00:39:17;;;;;;;6.70;2.65;;;20.20;91.20;;;17.50;83.65;100671.75;5070309;28;20750;-89
2022/07/03 00:41:46;;;;;;;6.43;2.30;;;20.10;91.00;;;17.46;84.31;100676.00;5068331;28;20495;-91
2022/07/03 00:44:15;;;;;;;4.72;2.20;;;20.10;91.20;;;17.42;85.14;100670.13;5050693;28;20416;-90
2022/07/03 00:46:46;;;;;;;6.25;2.40;;;20.10;91.80;;;17.40;85.83;100677.75;5050568;28;20464;-88
2022/07/03 00:49:16;;;;;;;5.03;2.30;;;20.00;92.00;;;17.37;85.38;100672.72;5049357;28;20151;-90
2022/07/03 00:51:45;;;;;;;5.10;2.20;;;20.00;91.90;;;17.36;86.25;100677.38;5063712;28;20481;-89
2022/07/03 00:54:20;;;;;;;6.68;2.35;;;20.00;92.20;;;17.32;86.64;100670.63;5069161;28;20114;-90
2022/07/03 00:56:55;;;;;;;6.72;2.30;;;20.00;92.50;;;17.30;86.73;100667.25;5061214;28;20048;-89
2022/07/03 00:59:24;;;;;;;6.93;2.53;;;20.00;92.50;;;17.30;87.18;100660.91;5052908;28;20094;-90
2022/07/03 01:02:02;;;;;;;6.03;2.30;;;20.00;92.70;;;17.26;87.44;100659.69;5068744;28;20060;-90
2022/07/03 01:04:46;;;;;;;5.03;2.40;;;20.00;92.80;;;17.18;86.94;100658.91;5048990;28;20136;-89
2022/07/03 01:07:24;;;;;;;4.97;2.10;;;19.90;92.60;;;17.11;88.00;100655.38;5079661;28;20526;-91
2022/07/03 01:10:04;;;;;;;4.90;2.40;;;19.90;93.00;;;17.07;88.15;100650.56;5060550;28;20051;-88
2022/07/03 01:12:47;;;;;;;6.22;2.55;;;19.90;93.20;;;16.99;89.07;100646.16;5050483;28;20045;-89
2022/07/03 01:15:26;;;;;;;4.53;2.20;;;19.80;93.40;;;16.93;89.74;100641.56;5060099;28;20140;-90
2022/07/03 01:18:04;;;;;;;7.28;2.50;;;19.70;93.60;;;16.88;89.78;100641.41;5068641;28;20631;-90
2022/07/03 01:20:34;;;;;;;5.78;2.45;;;19.70;93.60;;;16.80;90.46;100640.56;5067781;28;20056;-90
2022/07/03 01:23:02;;;;;;;8.35;2.75;;;19.70;94.00;;;16.74;90.91;100638.72;5064985;28;20135;-88
2022/07/03 01:25:43;;;;;;;6.28;2.60;;;19.70;94.10;;;16.70;91.67;100642.97;5058664;28;20079;-89
2022/07/03 01:28:14;;;;;;;4.82;2.30;;;19.70;94.40;;;16.67;92.75;100629.66;5067956;28;20072;-86
2022/07/03 01:30:47;;;;;;;6.85;2.33;;;19.60;94.90;;;16.62;92.72;100632.25;5060778;28;20497;-90
2022/07/03 01:33:18;;;;;;;6.15;2.22;;;19.50;95.00;;;16.59;93.15;100632.69;5068872;28;20048;-90
2022/07/03 01:35:57;;;;;;;;;;;19.50;95.20;;;16.53;93.54;100630.84;5069101;28;20163;-87
2022/07/03 01:38:27;;;;;;;5.25;2.58;;;19.50;95.40;;;16.48;95.22;100633.38;5064510;28;19978;-90
2022/07/03 01:40:58;;;;;;;6.43;2.30;;;19.40;95.90;;;16.44;94.87;100629.41;5065240;28;20395;-91
2022/07/03 01:43:30;;;;;;;5.22;2.83;;;19.40;95.90;;;16.43;94.96;100628.56;5048719;28;20117;-88
2022/07/03 01:46:00;;;;;;;6.32;2.58;;;19.40;96.10;;;16.42;94.90;100627.72;5062700;28;20052;-89
2022/07/03 01:48:28;;;;;;;6.22;2.25;;;19.40;96.00;;;16.42;95.37;100627.72;5065214;28;20045;-89
2022/07/03 01:50:57;;;;;;;5.55;2.90;;;19.40;96.30;;;16.42;96.18;100626.88;5051373;28;20558;-90
2022/07/03 01:53:27;;;;;;;7.10;2.63;;;19.30;96.70;;;16.39;96.82;100621.81;5068952;28;20044;-89
2022/07/03 01:55:59;;;;;;;5.47;2.40;;;19.30;97.00;;;16.41;96.33;100620.53;5067922;28;20394;-90
2022/07/03 01:58:27;;;;;;;6.13;2.50;;;19.30;97.00;;;16.45;97.30;100620.94;5058385;28;20330;-88
2022/07/03 02:01:09;;;;;;;5.32;2.28;;;19.30;97.50;;;16.47;97.91;100615.22;5068407;28;20139;-89
2022/07/03 02:03:42;;;;;;;5.95;2.30;;;19.30;97.80;;;16.50;97.75;100617.53;5068521;28;20957;-89
2022/07/03 02:06:21;;;;;;;5.75;2.28;;;19.30;97.80;;;16.51;98.05;100619.22;5067099;28;20049;-88
2022/07/03 02:08:58;;;;;;;7.95;2.50;;;19.30;98.10;;;16.50;98.33;100614.78;5068218;28;20507;-89
2022/07/03 02:11:34;;;;;;;6.28;2.53;;;19.20;98.30;;;16.47;98.84;100613.34;5067620;28;20044;-89
2022/07/03 02:14:13;;;;;;;6.70;2.78;;;19.20;98.60;;;16.44;98.60;100616.50;5058554;28;20048;-90
2022/07/03 02:16:54;;;;;;;5.13;2.20;;;19.20;98.50;;;16.38;99.38;100610.00;5066827;28;20049;-90
2022/07/03 02:19:31;;;;;;;5.68;2.85;;;19.20;98.70;;;16.34;99.37;100619.75;5071179;28;20094;-89
2022/07/03 02:21:59;;;;;;;4.63;2.20;;;19.20;98.60;;;16.29;99.28;100616.81;5049693;28;20139;-88
2022/07/03 02:24:29;;;;;;;6.93;2.28;;;19.20;98.60;;;16.23;99.20;100614.94;5052904;28;20036;-87
2022/07/03 02:27:03;;;;;;;4.68;2.17;;;19.10;98.50;;;16.19;100.00;100621.94;5058250;28;20357;-88
2022/07/03 02:29:35;;;;;;;7.22;2.72;;;19.10;98.80;;;16.15;100.00;100615.19;5062175;28;20572;-88
2022/07/03 02:32:07;;;;;;;5.32;2.17;;;19.10;98.90;;;16.12;100.00;100610.97;5065035;28;20103;-89
2022/07/03 02:34:36;;;;;;;5.65;2.70;;;19.10;99.20;;;16.10;100.00;100621.34;5048436;28;20068;-89
2022/07/03 02:37:15;;;;;;;5.15;2.28;;;19.00;99.20;;;16.05;100.00;100618.41;5051865;28;20466;-89
2022/07/03 02:39:46;;;;;;;5.68;2.47;;;19.00;99.30;;;16.07;100.00;100613.56;5067916;28;20044;-89
2022/07/03 02:42:30;;;;;;;4.60;2.47;;;19.00;99.30;;;16.11;100.00;100608.47;5068661;28;20040;-89
2022/07/03 02:45:02;;;;;;;6.35;2.40;;;19.00;99.40;;;16.13;100.00;100603.59;5066705;28;20313;-89
2022/07/03 02:47:44;;;;;;;5.40;2.47;;;19.00;99.60;;;16.13;100.00;100601.69;5060465;28;20037;-90
2022/07/03 02:50:16;;;;;;;5.30;2.40;;;19.00;99.90;;;16.12;100.00;100610.13;5057698;28;20141;-91
2022/07/03 02:52:53;;;;;;;6.65;2.33;;;19.00;99.90;;;16.11;100.00;100602.97;5068554;28;20040;-90
2022/07/03 02:55:43;;;;;;;7.03;2.58;;;19.00;99.90;;;16.06;100.00;100608.28;5068669;28;20098;-90
2022/07/03 02:58:46;;;;;;;5.65;2.67;;;19.00;99.90;;;16.03;100.00;100606.81;5047851;28;20410;-87
2022/07/03 03:01:25;;;;;;;6.22;2.55;;;18.90;99.90;;;15.99;100.00;100609.16;5072591;28;20509;-90
2022/07/03 03:04:08;;;;;;;5.60;2.42;;;18.90;99.90;;;15.96;100.00;100601.34;5065882;28;20076;-87
2022/07/03 03:06:38;;;;;;;5.93;2.85;;;18.90;99.90;;;15.95;100.00;100613.38;5068023;28;20546;-88
2022/07/03 03:09:09;;;;;;;6.95;2.50;;;18.90;99.90;;;15.89;100.00;100610.66;5062896;28;20049;-89
2022/07/03 03:11:43;;;;;;;6.40;2.90;;;18.80;99.90;;;15.82;100.00;100605.19;5048608;28;20458;-90
2022/07/03 03:14:14;;;;;;;4.57;2.70;;;18.80;99.90;;;15.82;100.00;100605.19;5063581;28;20326;-89
2022/07/03 03:16:49;;;;;;;7.28;2.50;;;18.80;99.90;;;15.81;100.00;100609.84;5061132;28;20068;-90
2022/07/03 03:19:20;;;;;;;5.68;2.65;;;18.80;99.90;;;15.78;100.00;100610.28;5046848;28;20056;-90
2022/07/03 03:21:59;;;;;;;9.40;3.00;;;18.80;99.90;;;15.76;100.00;100606.06;5060312;28;20079;-89
2022/07/03 03:24:27;;;;;;;6.65;2.80;;;18.70;99.90;;;15.74;100.00;100603.53;5068607;28;20051;-90
2022/07/03 03:26:54;;;;;;;4.97;2.38;;;18.70;99.90;;;15.73;100.00;100607.34;5054886;28;20144;-90
2022/07/03 03:29:24;;;;;;;10.18;2.80;;;18.70;99.90;;;15.75;100.00;100607.13;5052870;28;20528;-89
2022/07/03 03:31:51;;;;;;;7.35;2.90;;;18.70;99.90;;;15.79;100.00;100613.88;5061436;28;20131;-87
2022/07/03 03:34:19;;;;;;;9.43;3.13;;;18.70;99.90;;;15.80;100.00;100607.31;5064341;28;20048;-90
2022/07/03 03:36:46;;;;;;;5.38;2.55;;;18.70;99.90;;;15.83;100.00;100612.38;5072956;28;20041;-90
2022/07/03 03:39:14;;;;;;;6.65;2.38;;;18.70;99.90;;;15.85;100.00;100615.75;5070923;28;20043;-89
2022/07/03 03:41:41;;;;;;;8.93;2.83;;;18.70;99.90;;;15.89;100.00;100617.00;5070808;28;20143;-90
2022/07/03 03:44:08;;;;;;;8.90;2.72;;;18.70;99.90;;;15.91;100.00;100614.88;5071890;28;20547;-89
2022/07/03 03:46:37;;;;;;;5.40;2.70;;;18.70;99.90;;;15.88;100.00;100620.81;5069274;28;20051;-88
2022/07/03 03:49:05;;;;;;;6.47;3.17;;;18.60;99.90;;;15.90;100.00;100615.13;5054488;28;20049;-88
2022/07/03 03:51:33;;;;;;;5.22;2.80;;;18.60;99.90;;;15.89;100.00;100617.00;5059749;28;20044;-88
2022/07/03 03:54:00;;;;;;;8.40;2.67;;;18.60;99.90;;;15.91;100.00;100614.88;5056870;28;20149;-91
2022/07/03 03:56:27;;;;;;;7.95;2.85;;;18.60;99.90;;;15.92;100.00;100622.06;5050665;28;20396;-90
2022/07/03 03:58:54;;;;;;;6.25;2.47;;;18.60;99.90;;;15.93;100.00;100620.97;5049456;28;20080;-89
2022/07/03 04:01:22;;;;;;;6.03;2.45;;;18.60;99.90;;;15.95;100.00;100613.38;5060862;28;20048;-90
2022/07/03 04:03:51;;;;;;;4.65;2.40;;;18.60;99.90;;;15.98;100.00;100620.34;5070152;28;20040;-90
2022/07/03 04:06:20;;;;;;;4.97;2.60;;;18.60;99.90;;;15.98;100.00;100615.69;5050368;28;20043;-90
2022/07/03 04:08:48;;;;;;;10.35;2.50;;;18.60;99.90;;;16.02;100.00;100616.94;5051542;28;20147;-89
2022/07/03 04:11:15;;;;;;;5.93;2.72;;;18.60;99.90;;;16.03;100.00;100612.31;5059856;28;20647;-89
2022/07/03 04:13:42;;;;;;;6.82;2.53;;;18.70;99.90;;;16.05;100.00;100614.81;5050135;28;20087;-90
2022/07/03 04:16:09;;;;;;;4.97;2.47;;;18.70;99.90;;;16.11;100.00;100624.94;5062199;28;20067;-89
2022/07/03 04:18:37;;;;;;;5.30;2.28;;;18.60;99.90;;;16.14;100.00;100619.81;5070056;28;20083;-90
2022/07/03 04:21:06;;;;;;;5.15;2.33;;;18.70;99.90;;;16.19;100.00;100620.03;5067753;28;20052;-89
2022/07/03 04:23:33;;;;;;;6.70;2.40;;;18.70;99.90;;;16.24;100.00;100619.38;5068112;28;20044;-87
2022/07/03 04:26:05;;;;;;;7.15;2.20;;;18.70;99.90;;;16.26;100.00;100619.13;5069953;28;20080;-89
2022/07/03 04:28:33;;;;;;;5.72;2.88;;;18.70;99.90;;;16.30;100.00;100629.47;5070994;28;20563;-89
2022/07/03 04:31:00;;;;;;;6.85;2.63;;;18.70;99.90;;;16.31;100.00;100622.91;5069590;28;20044;-89
2022/07/03 04:33:28;;;;;;;4.82;2.47;;;18.80;99.90;;;16.31;100.00;100625.66;5071115;28;20493;-90
2022/07/03 04:35:55;;;;;;;9.75;2.53;;;18.80;99.90;;;16.31;100.00;100631.16;5069757;28;20101;-91
2022/07/03 04:38:23;;;;;;;4.70;2.38;;;18.80;99.90;;;16.36;100.00;100628.59;5068699;28;20582;-88
2022/07/03 04:40:51;;;;;;;4.20;2.33;;;18.80;99.90;;;16.42;100.00;100632.38;5070829;28;20036;-88
2022/07/03 04:43:20;;;;;;;5.03;2.33;;;18.80;99.90;;;16.48;100.00;100638.88;5068831;28;20925;-90
2022/07/03 04:45:50;;;;;;;4.22;2.30;;;18.80;99.90;;;16.53;100.00;100639.06;5071186;28;20561;-90
2022/07/03 04:48:29;;;;;;;5.47;2.60;;;18.80;99.90;;;16.61;100.00;100636.88;5070339;28;20053;-90
2022/07/03 04:51:13;;;;;;;4.93;2.63;;;18.80;99.90;;;16.63;100.00;100639.41;5069506;28;20174;-90
2022/07/03 04:54:01;;;;;;;4.55;2.10;;;18.90;99.90;;;16.63;100.00;100633.09;5069644;28;20048;-90
2022/07/03 04:56:33;;;;;;;5.07;2.30;;;18.90;99.90;;;16.68;100.00;100652.47;5056936;28;20153;-89
2022/07/03 04:59:08;;;;;;;10.15;2.30;;;18.90;99.90;;;16.66;100.00;100655.47;5060508;28;20044;-90
2022/07/03 05:02:19;;;;;;;5.45;2.00;;;18.90;99.90;;;16.78;100.00;100648.19;5069421;28;20053;-89
2022/07/03 05:05:02;;;;;;;6.05;2.45;;;19.00;99.90;;;16.95;100.00;100654.03;5065163;28;20044;-90
2022/07/03 05:07:44;;;;;;;;;;;;;;;;;;;;;
2022/07/03 05:10:26;;;;;;;7.30;2.28;;;19.10;99.90;;;17.62;100.00;100658.09;5069073;28;20083;-90
2022/07/03 05:12:55;;;;;;;11.32;2.85;;;19.20;99.90;;;17.96;99.72;100649.25;5055839;28;20037;-91
2022/07/03 05:15:31;;;;;;;9.75;2.42;;;19.30;99.90;;;18.19;98.72;100657.88;5050812;28;20037;-89
2022/07/03 05:18:21;;;;;;;5.00;2.40;;;19.40;99.90;;;18.33;96.20;100659.38;5066546;28;20874;-89
2022/07/03 05:20:51;;;;;;;5.35;2.10;;;19.60;99.90;;;18.44;95.97;100666.84;5070551;28;20042;-90
2022/07/03 05:23:19;;;;;;;8.05;2.67;;;19.70;99.90;;;18.49;94.85;100660.66;5068859;28;20048;-88
2022/07/03 05:25:55;;;;;;;8.45;3.08;;;19.70;99.90;;;18.52;92.90;100658.28;5068817;28;20151;-88
2022/07/03 05:28:25;;;;;;;8.23;2.67;;;19.80;99.90;;;18.63;92.64;100655.78;5051405;28;20533;-89
2022/07/03 05:30:56;;;;;;;6.57;2.17;;;19.90;99.90;;;18.61;90.73;100656.00;5050382;28;20079;-87
2022/07/03 05:33:53;;;;;;;;;;;19.90;99.90;;;18.67;88.67;100665.25;5068515;28;20044;-89
2022/07/03 05:36:22;;;;;;;8.23;2.58;;;19.90;99.70;;;18.71;89.92;100671.97;5067622;28;20578;-89
2022/07/03 05:45:05;;;;;;;6.93;2.47;;;20.10;99.30;;;18.89;89.76;100680.22;5071183;28;20037;-91
2022/07/03 05:47:41;;;;;;;5.30;2.50;;;20.10;99.50;;;18.97;91.41;100681.81;5054253;28;20048;-90
2022/07/03 05:50:17;;;;;;;8.27;3.30;;;20.20;99.90;;;19.01;89.35;100683.00;5053360;28;20049;-93
2022/07/03 05:52:45;;;;;;;6.95;3.17;;;20.20;99.60;;;19.04;89.58;100679.78;5057472;28;20094;-90
2022/07/03 05:55:15;;;;;;;7.68;3.10;;;20.30;99.80;;;19.17;88.48;100684.22;5055441;28;20463;-91
2022/07/03 05:57:53;;;;;;;10.80;3.38;;;20.30;99.10;;;19.46;87.42;100679.72;5070989;28;20080;-91
2022/07/03 06:03:40;;;;;;;7.72;3.17;;;21.00;96.90;;;22.18;73.77;100684.75;5070847;28;20044;-90
2022/07/03 06:06:28;;;;;;;8.90;3.55;;;21.60;94.50;;;23.66;68.06;100683.72;5070154;28;20048;-91
2022/07/03 06:11:48;;;;;;;8.98;3.17;;;22.70;91.00;;;25.96;56.42;100675.03;5068796;28;20056;-91
2022/07/03 06:14:45;;;;;;;7.30;3.25;;;23.20;87.30;;;27.37;52.89;100666.41;5070239;28;20390;-92
2022/07/03 06:17:16;;;;;;;7.22;3.40;;;23.60;86.90;;;28.79;47.85;100671.44;5069767;28;20055;-90
2022/07/03 06:20:02;;;;;;;8.60;3.42;;;24.00;85.00;;;30.12;43.46;100676.69;5069729;28;20068;-91
2022/07/03 06:22:38;;;;;;;8.52;4.10;;;24.20;83.80;;;31.35;39.79;100675.84;5071514;28;20041;-91
2022/07/03 06:25:26;;;;;;;12.63;3.42;;;24.60;81.30;;;32.50;37.52;100664.75;5069383;28;20463;-91
2022/07/03 06:31:40;;;;;;;8.68;3.72;;;24.90;81.10;;;34.41;34.08;100674.03;5068784;28;20056;-91
2022/07/03 06:34:37;;;;;;;8.10;3.22;;;25.10;81.20;;;34.72;31.73;100681.31;5069668;28;20076;-91
2022/07/03 06:37:26;;;;;;;7.47;3.53;;;25.10;79.70;;;31.38;36.80;100687.31;5070716;28;20045;-91
2022/07/03 06:40:18;;;;;;;6.88;3.05;;;25.10;80.40;;;27.82;45.19;100686.66;5070903;28;20550;-92
2022/07/03 06:43:02;;;;;;;7.57;3.20;;;25.10;81.00;;;26.24;50.35;100690.28;5063163;28;20055;-92
2022/07/03 06:45:30;;;;;;;7.22;3.28;;;25.00;81.60;;;25.24;53.09;100694.59;5067091;28;20052;-91
2022/07/03 06:48:22;;;;;;;6.15;2.90;;;24.90;80.60;;;24.65;56.65;100701.47;5076160;28;20051;-92
2022/07/03 06:54:37;;;;;;;7.18;3.08;;;24.60;83.80;;;23.96;58.16;100691.44;5076121;28;20768;-91
2022/07/03 06:57:13;;;;;;;7.70;3.20;;;24.50;81.60;;;23.90;57.63;100696.13;5078755;28;20067;-91
2022/07/03 06:59:41;;;;;;;7.60;2.67;;;24.30;81.20;;;23.80;57.79;100694.13;5069911;28;20055;-91
2022/07/03 07:02:11;;;;;;;8.32;3.30;;;24.20;81.40;;;23.72;58.90;100704.88;5077323;28;20041;-91
2022/07/03 07:04:40;;;;;;;12.90;3.38;;;24.30;82.50;;;23.66;60.21;100700.38;5091104;28;20044;-93
2022/07/03 07:07:08;;;;;;;5.28;2.28;;;24.10;83.00;;;23.59;60.67;100698.69;5088776;28;20051;-95
2022/07/03 07:09:35;;;;;;;5.75;3.00;;;24.00;83.40;;;23.56;59.40;100704.75;5088728;28;20032;-94
2022/07/03 07:12:03;;;;;;;6.35;2.90;;;23.90;83.00;;;23.42;59.95;100701.59;5088640;28;20045;-95
2022/07/03 07:14:30;;;;;;;7.88;2.75;;;23.90;82.80;;;23.50;61.41;100702.22;5105492;28;20192;-94
2022/07/03 07:16:58;;;;;;;5.70;2.78;;;23.80;83.50;;;23.51;60.71;100710.28;5090405;28;20092;-95
2022/07/03 07:19:26;;;;;;;12.88;2.78;;;23.80;83.90;;;23.45;62.48;100700.22;5089629;28;20079;-95
2022/07/03 07:21:54;;;;;;;5.18;2.63;;;23.80;84.30;;;23.52;64.80;100717.50;5092173;28;20033;-94
2022/07/03 07:24:22;;;;;;;7.50;2.67;;;23.80;86.60;;;23.50;61.05;100708.63;5091849;28;20028;-95
2022/07/03 07:26:49;;;;;;;6.45;2.97;;;23.80;84.90;;;23.43;62.49;100708.81;5084979;28;20106;-93
2022/07/03 07:29:16;;;;;;;7.70;3.05;;;23.80;84.60;;;23.41;61.67;100697.13;5061962;28;20506;-92
2022/07/03 07:31:44;;;;;;;6.90;2.80;;;23.80;84.20;;;23.34;62.68;100698.47;5083644;28;20412;-91
2022/07/03 07:34:12;;;;;;;7.90;2.70;;;23.70;84.40;;;23.32;63.76;100696.00;5075759;28;20078;-92
2022/07/03 07:36:40;;;;;;;6.55;2.67;;;23.70;85.60;;;23.34;63.38;100698.47;5063354;28;20414;-92
2022/07/03 07:39:09;;;;;;;7.47;3.08;;;23.70;85.40;;;23.30;61.46;100697.34;5074041;28;20497;-92
2022/07/03 07:41:50;;;;;;;7.25;2.78;;;23.70;83.80;;;23.31;64.26;100691.53;5064062;28;20509;-91
2022/07/03 07:48:08;;;;;;;6.55;2.88;;;23.70;85.30;;;23.28;62.12;100699.53;5027276;28;20120;-91
2022/07/03 07:50:35;;;;;;;6.22;2.50;;;23.70;84.50;;;23.30;61.96;100698.16;5081239;28;20044;-94
2022/07/03 07:53:03;;;;;;;4.57;2.15;;;23.70;84.90;;;23.31;63.96;100697.06;5089610;28;20078;-94
2022/07/03 07:55:32;;;;;;;10.50;3.33;;;23.70;85.80;;;23.34;62.48;100698.47;5090632;28;20036;-95
2022/07/03 07:57:59;;;;;;;6.70;2.85;;;23.70;85.50;;;23.36;62.54;100702.69;5089219;28;20045;-94
2022/07/03 08:00:27;;;;;;;8.10;2.67;;;23.70;84.90;;;23.48;65.25;100698.88;5090486;28;20051;-94
2022/07/03 08:05:53;;;;;;;7.63;3.60;;;23.70;85.90;;;23.50;62.03;100705.84;4982506;28;20046;-90
2022/07/03 08:08:21;;;;;;;7.88;2.78;;;23.70;85.00;;;23.52;62.95;100713.91;4985637;28;20050;-91
2022/07/03 08:10:51;;;;;;;8.35;3.13;;;23.80;84.90;;;23.57;64.12;100711.16;5011121;28;20132;-90
2022/07/03 08:13:21;;;;;;;6.53;3.07;;;23.80;86.30;;;23.60;62.98;100716.19;5073120;28;20116;-90
2022/07/03 08:15:48;;;;;;;9.93;3.15;;;23.80;85.30;;;23.61;62.67;100703.97;5073067;28;20568;-91
2022/07/03 08:18:16;;;;;;;6.65;3.03;;;23.80;85.20;;;23.63;63.69;100704.53;5073473;28;20168;-91
2022/07/03 08:26:46;;;;;;;6.32;3.30;;;23.80;86.10;;;23.59;61.84;100707.03;5078343;28;20044;-91
2022/07/03 08:29:13;;;;;;;8.30;2.85;;;23.90;84.00;;;23.62;63.59;100709.25;5074156;28;20066;-92
2022/07/03 08:31:43;;;;;;;7.53;3.03;;;23.90;85.90;;;23.69;64.09;100706.25;5074331;28;20045;-92
2022/07/03 08:34:37;;;;;;;6.78;2.60;;;23.90;87.30;;;23.72;63.89;100704.88;5071953;28;20079;-91
2022/07/03 08:37:07;;;;;;;8.10;2.95;;;23.90;86.10;;;23.71;62.45;100709.59;5069793;28;20488;-89
2022/07/03 08:39:59;;;;;;;8.60;3.05;;;23.90;84.90;;;23.73;62.66;100710.16;5067395;28;20044;-88
2022/07/03 08:42:47;;;;;;;8.45;3.35;;;23.90;85.30;;;23.81;62.91;100708.84;5064912;28;20049;-88
2022/07/03 08:45:22;;;;;;;9.73;3.83;;;24.00;85.60;;;23.78;60.55;100709.38;5065567;28;20084;-88
2022/07/03 08:47:53;;;;;;;9.57;3.17;;;24.00;83.40;;;23.77;61.45;100707.69;5060645;28;20051;-88
2022/07/03 08:50:36;;;;;;;7.28;4.00;;;24.00;83.90;;;23.80;59.88;100708.03;5059858;28;20560;-90
2022/07/03 08:53:45;;;;;;;8.60;3.67;;;24.00;82.60;;;23.75;61.11;100710.72;5067615;28;20048;-90
2022/07/03 08:56:25;;;;;;;9.13;4.07;;;24.10;82.10;;;23.71;60.09;100697.66;5063815;28;20088;-90
2022/07/03 08:59:18;;;;;;;10.25;3.55;;;24.00;82.50;;;23.69;60.08;100710.97;5062693;28;20056;-89
2022/07/03 09:01:52;;;;;;;9.15;3.80;;;24.00;82.30;;;23.75;61.81;100704.34;5060500;28;20056;-88
2022/07/03 09:04:37;;;;;;;12.18;3.85;;;24.00;85.20;;;23.77;60.92;100702.13;5048060;28;20052;-89
2022/07/03 09:07:14;;;;;;;9.40;3.65;;;24.10;83.60;;;23.85;64.91;100703.59;5058362;28;20048;-88
2022/07/03 09:10:08;;;;;;;10.85;3.60;;;24.10;86.70;;;23.93;62.19;100708.63;5062024;28;20142;-88
2022/07/03 09:12:53;;;;;;;7.97;2.72;;;24.20;84.80;;;23.92;60.54;100709.75;5069342;28;20047;-89
2022/07/03 09:15:48;;;;;;;5.05;2.33;;;24.20;82.80;;;23.94;63.19;100699.22;5069926;28;20051;-88
2022/07/03 09:22:23;;;;;;;6.97;2.30;;;24.20;84.00;;;23.87;59.40;100712.50;5074648;28;20063;-93
2022/07/03 09:25:09;;;;;;;5.32;2.10;;;24.00;82.40;;;23.87;60.63;100712.50;5067951;28;20048;-90
2022/07/03 09:30:11;;;;;;;6.80;1.98;;;24.20;82.10;;;23.94;62.30;100715.88;5019316;28;20083;-83
2022/07/03 09:32:47;;;;;;;4.35;2.10;;;24.30;84.50;;;24.04;65.78;100709.53;5007569;28;20065;-83
2022/07/03 09:35:20;;;;;;;5.28;2.30;;;24.30;86.90;;;24.05;61.96;100708.44;5010056;28;20121;-83
2022/07/03 09:37:53;;;;;;;4.90;1.92;;;24.30;83.90;;;24.07;60.33;100704.28;5004440;28;20034;-83
2022/07/03 09:40:21;;;;;;;5.13;2.13;;;24.40;83.10;;;24.05;59.42;100714.84;5010395;28;20042;-86
2022/07/03 09:43:00;;;;;;;8.15;2.40;;;24.40;81.80;;;23.94;59.90;100708.38;5010105;28;20121;-85
2022/07/03 09:45:28;;;;;;;6.53;2.33;;;24.30;81.90;;;23.93;61.60;100705.84;5003967;28;20050;-86
2022/07/03 09:47:56;;;;;;;6.70;2.25;;;24.30;83.10;;;24.02;61.70;100692.28;5007926;28;20045;-85
2022/07/03 09:50:23;;;;;;;9.15;2.50;;;24.40;83.40;;;24.06;61.63;100701.75;5009871;28;20042;-86
2022/07/03 09:52:51;;;;;;;4.80;2.10;;;24.50;83.90;;;24.14;61.79;100707.66;5012659;28;20124;-86
2022/07/03 09:55:20;;;;;;;4.22;1.95;;;24.50;83.60;;;24.16;60.59;100708.22;5006010;28;20039;-86
2022/07/03 09:58:01;;;;;;;5.97;2.40;;;24.50;82.80;;;24.17;59.30;100709.06;5009825;28;20037;-86
2022/07/03 10:00:30;;;;;;;5.55;2.20;;;24.60;82.50;;;24.16;59.94;100704.59;5006882;28;20038;-86
2022/07/03 10:03:00;;;;;;;6.53;2.20;;;24.50;82.40;;;24.14;59.04;100702.09;5007055;28;20049;-85
2022/07/03 10:05:30;;;;;;;4.72;2.28;;;24.50;80.90;;;24.16;60.45;100697.09;5008528;28;20050;-89
2022/07/03 10:08:00;;;;;;;7.70;1.92;;;24.50;82.50;;;24.12;58.24;100698.75;5009256;28;20112;-87
2022/07/03 10:10:29;;;;;;;8.48;1.92;;;24.50;80.50;;;24.15;61.65;100698.19;5009310;28;20045;-87
2022/07/03 10:12:57;;;;;;;8.73;2.30;;;24.50;82.90;;;24.18;60.34;100694.88;5008721;28;20120;-87
2022/07/03 10:15:27;;;;;;;8.45;2.53;;;24.60;82.10;;;24.21;62.55;100696.28;5007993;28;20030;-89
2022/07/03 10:17:57;;;;;;;6.82;2.50;;;24.60;83.90;;;24.28;59.24;100708.00;5009199;28;20034;-77
2022/07/03 10:20:32;;;;;;;6.07;2.07;;;24.70;82.20;;;24.20;58.97;100706.56;5007562;28;20477;-89
2022/07/03 10:23:00;;;;;;;4.72;2.13;;;24.60;80.60;;;24.22;62.53;100708.22;5010968;28;20041;-87
2022/07/03 10:25:27;;;;;;;5.35;2.35;;;24.60;83.90;;;24.11;59.44;100702.63;5007044;28;20121;-89
2022/07/03 10:27:55;;;;;;;7.30;2.40;;;24.60;81.10;;;24.14;60.35;100710.44;5007094;28;20048;-90
2022/07/03 10:30:26;;;;;;;5.75;2.33;;;24.60;81.80;;;24.14;61.49;100699.31;5007805;28;20144;-87
2022/07/03 10:32:56;;;;;;;5.35;1.58;;;24.60;83.10;;;24.11;60.89;100705.41;5009767;28;20056;-87
2022/07/03 10:35:29;;;;;;;6.95;2.20;;;24.60;82.40;;;24.11;59.38;100704.56;5005657;28;20054;-88
2022/07/03 10:38:35;;;;;;;3.50;1.40;;;24.60;81.50;;;24.16;64.81;100705.44;5008517;28;20494;-91
2022/07/03 10:46:39;;;;;;;7.18;1.83;;;24.70;81.80;;;24.22;61.85;100722.13;5006988;28;20042;-87
2022/07/03 10:49:07;;;;;;;9.98;2.20;;;24.70;83.50;;;24.16;60.61;100708.22;5008413;28;20383;-87
2022/07/03 10:51:55;;;;;;;4.95;1.95;;;24.70;82.70;;;24.08;64.97;100703.16;5009498;28;20065;-86
2022/07/03 10:54:25;;;;;;;5.25;1.80;;;24.60;84.00;;;24.12;63.71;100709.88;5008133;28;20048;-85
2022/07/03 10:57:17;;;;;;;6.40;1.98;;;24.60;84.50;;;24.20;62.17;100714.91;5007821;28;20109;-87
2022/07/03 11:00:08;;;;;;;7.20;2.10;;;24.70;83.90;;;24.24;62.30;100709.66;5007695;28;20038;-93
2022/07/03 11:02:39;;;;;;;7.28;2.00;;;24.70;83.70;;;24.27;65.16;100706.31;5004330;28;20044;-91
2022/07/03 11:05:26;;;;;;;;;;;24.70;86.20;;;24.30;63.10;100710.50;5016422;28;20042;-89
2022/07/03 11:08:12;;;;;;;4.07;1.60;;;24.70;85.50;;;24.31;64.63;100695.47;5001013;28;19980;-88
2022/07/03 11:10:41;;;;;;;6.03;1.80;;;24.80;85.90;;;24.31;62.67;100706.59;5008766;28;20046;-89
2022/07/03 11:13:15;;;;;;;5.43;2.17;;;24.70;84.30;;;24.31;60.01;100701.03;5008317;28;20124;-88
2022/07/03 11:15:46;;;;;;;6.05;1.98;;;24.70;81.80;;;24.32;61.45;100697.16;5002054;28;20509;-88
2022/07/03 11:18:25;;;;;;;9.52;1.90;;;24.80;82.80;;;24.34;59.16;100700.50;5000291;28;20173;-89
2022/07/03 11:21:25;;;;;;;4.60;1.90;;;24.80;80.70;;;24.34;61.57;100700.50;5003019;28;20440;-89
2022/07/03 11:24:36;;;;;;;5.90;2.15;;;24.80;83.50;;;24.21;60.62;100701.84;5007220;28;20124;-90
2022/07/03 11:27:20;;;;;;;7.45;1.83;;;24.80;81.70;;;24.25;63.02;100693.78;5008250;28;20831;-89